sensor_id;sensor_type;location;lat;lon;timestamp;pressure;altitude;pressure_sealevel;temperature;humidity
45541;BME280;31265;49.680;8.608;2023-07-13T00:01:50;100454.69;;;18.97;100.00
45541;BME280;31265;49.680;8.608;2023-07-13T00:04:19;100453.50;;;18.88;100.00
45541;BME280;31265;49.680;8.608;2023-07-13T00:06:47;100468.22;;;18.75;100.00
45541;BME280;31265;49.680;8.608;2023-07-13T00:09:15;100461.16;;;18.62;100.00
45541;BME280;31265;49.680;8.608;2023-07-13T00:11:43;100460.50;;;18.50;100.00
45541;BME280;31265;49.680;8.608;2023-07-13T00:14:11;100471.97;;;18.42;100.00
45541;BME280;31265;49.680;8.608;2023-07-13T00:16:39;100459.91;;;18.39;100.00
45541;BME280;31265;49.680;8.608;2023-07-13T00:19:10;100465.19;;;18.33;100.00
45541;BME280;31265;49.680;8.608;2023-07-13T00:21:37;100462.38;;;18.33;100.00
45541;BME280;31265;49.680;8.608;2023-07-13T00:24:05;100467.53;;;18.25;100.00
45541;BME280;31265;49.680;8.608;2023-07-13T00:26:32;100469.13;;;18.16;100.00
45541;BME280;31265;49.680;8.608;2023-07-13T00:29:00;100470.63;;;18.05;100.00
45541;BME280;31265;49.680;8.608;2023-07-13T00:31:29;100475.72;;;18.09;100.00
45541;BME280;31265;49.680;8.608;2023-07-13T00:33:56;100469.25;;;18.18;100.00
45541;BME280;31265;49.680;8.608;2023-07-13T00:36:23;100471.44;;;18.20;100.00
45541;BME280;31265;49.680;8.608;2023-07-13T00:38:51;100476.16;;;18.29;100.00
45541;BME280;31265;49.680;8.608;2023-07-13T00:41:18;100464.19;;;18.40;100.00
45541;BME280;31265;49.680;8.608;2023-07-13T00:43:46;100466.75;;;18.36;100.00
45541;BME280;31265;49.680;8.608;2023-07-13T00:46:21;100469.31;;;18.32;100.00
45541;BME280;31265;49.680;8.608;2023-07-13T00:48:49;100471.66;;;18.36;100.00
45541;BME280;31265;49.680;8.608;2023-07-13T00:51:25;100470.69;;;18.31;100.00
45541;BME280;31265;49.680;8.608;2023-07-13T00:53:57;100475.31;;;18.26;100.00
45541;BME280;31265;49.680;8.608;2023-07-13T00:56:26;100470.56;;;18.17;100.00
45541;BME280;31265;49.680;8.608;2023-07-13T00:58:55;100479.25;;;18.10;100.00
45541;BME280;31265;49.680;8.608;2023-07-13T01:01:23;100477.44;;;18.02;100.00
45541;BME280;31265;49.680;8.608;2023-07-13T01:03:49;100483.09;;;17.91;100.00
45541;BME280;31265;49.680;8.608;2023-07-13T01:06:18;100464.00;;;17.77;100.00
45541;BME280;31265;49.680;8.608;2023-07-13T01:08:46;100477.81;;;17.61;100.00
45541;BME280;31265;49.680;8.608;2023-07-13T01:11:18;100472.06;;;17.59;100.00
45541;BME280;31265;49.680;8.608;2023-07-13T01:13:45;100463.16;;;17.51;100.00
45541;BME280;31265;49.680;8.608;2023-07-13T01:16:15;100477.53;;;17.34;100.00
45541;BME280;31265;49.680;8.608;2023-07-13T01:18:46;100480.22;;;17.32;100.00
45541;BME280;31265;49.680;8.608;2023-07-13T01:21:14;100471.03;;;17.19;100.00
45541;BME280;31265;49.680;8.608;2023-07-13T01:23:40;100476.38;;;17.04;100.00
45541;BME280;31265;49.680;8.608;2023-07-13T01:26:07;100466.22;;;16.87;100.00
45541;BME280;31265;49.680;8.608;2023-07-13T01:28:36;100472.81;;;16.70;100.00
45541;BME280;31265;49.680;8.608;2023-07-13T01:31:04;100470.69;;;16.59;100.00
45541;BME280;31265;49.680;8.608;2023-07-13T01:33:31;100474.75;;;16.46;100.00
45541;BME280;31265;49.680;8.608;2023-07-13T01:35:58;100476.91;;;16.36;100.00
45541;BME280;31265;49.680;8.608;2023-07-13T01:38:26;100485.09;;;16.22;100.00
45541;BME280;31265;49.680;8.608;2023-07-13T01:40:53;100484.56;;;16.13;100.00
45541;BME280;31265;49.680;8.608;2023-07-13T01:43:23;100474.16;;;16.04;100.00
45541;BME280;31265;49.680;8.608;2023-07-13T01:45:50;100483.59;;;15.99;100.00
45541;BME280;31265;49.680;8.608;2023-07-13T01:48:17;100479.50;;;16.00;100.00
45541;BME280;31265;49.680;8.608;2023-07-13T01:50:44;100485.44;;;16.16;100.00
45541;BME280;31265;49.680;8.608;2023-07-13T01:53:12;100491.16;;;16.18;100.00
45541;BME280;31265;49.680;8.608;2023-07-13T01:55:39;100492.50;;;16.17;100.00
45541;BME280;31265;49.680;8.608;2023-07-13T01:58:07;100495.03;;;16.13;100.00
45541;BME280;31265;49.680;8.608;2023-07-13T02:00:34;100498.34;;;16.21;100.00
45541;BME280;31265;49.680;8.608;2023-07-13T02:03:02;100496.34;;;16.12;100.00
45541;BME280;31265;49.680;8.608;2023-07-13T02:05:31;100498.31;;;16.00;100.00
45541;BME280;31265;49.680;8.608;2023-07-13T02:07:58;100505.31;;;15.89;100.00
45541;BME280;31265;49.680;8.608;2023-07-13T02:10:25;100505.34;;;15.79;100.00
45541;BME280;31265;49.680;8.608;2023-07-13T02:12:53;100506.41;;;15.74;100.00
45541;BME280;31265;49.680;8.608;2023-07-13T02:15:19;100510.41;;;15.71;100.00
45541;BME280;31265;49.680;8.608;2023-07-13T02:17:47;100515.41;;;15.63;100.00
45541;BME280;31265;49.680;8.608;2023-07-13T02:20:14;100519.81;;;15.66;100.00
45541;BME280;31265;49.680;8.608;2023-07-13T02:22:41;100519.53;;;15.62;100.00
45541;BME280;31265;49.680;8.608;2023-07-13T02:25:08;100517.78;;;15.57;100.00
45541;BME280;31265;49.680;8.608;2023-07-13T02:27:35;100522.06;;;15.48;100.00
45541;BME280;31265;49.680;8.608;2023-07-13T02:30:04;100515.31;;;15.41;100.00
45541;BME280;31265;49.680;8.608;2023-07-13T02:32:32;100524.03;;;15.36;100.00
45541;BME280;31265;49.680;8.608;2023-07-13T02:35:00;100518.13;;;15.32;100.00
45541;BME280;31265;49.680;8.608;2023-07-13T02:37:28;100518.16;;;15.22;100.00
45541;BME280;31265;49.680;8.608;2023-07-13T02:39:56;100523.75;;;15.22;100.00
45541;BME280;31265;49.680;8.608;2023-07-13T02:42:23;100518.00;;;15.10;100.00
45541;BME280;31265;49.680;8.608;2023-07-13T02:44:50;100527.72;;;15.09;100.00
45541;BME280;31265;49.680;8.608;2023-07-13T02:47:18;100529.66;;;15.07;100.00
45541;BME280;31265;49.680;8.608;2023-07-13T02:49:45;100524.50;;;15.03;100.00
45541;BME280;31265;49.680;8.608;2023-07-13T02:52:12;100528.03;;;15.03;100.00
45541;BME280;31265;49.680;8.608;2023-07-13T02:54:39;100523.03;;;15.02;100.00
45541;BME280;31265;49.680;8.608;2023-07-13T02:57:06;100531.41;;;14.92;100.00
45541;BME280;31265;49.680;8.608;2023-07-13T02:59:33;100519.06;;;14.95;100.00
45541;BME280;31265;49.680;8.608;2023-07-13T03:02:01;100522.72;;;14.98;100.00
45541;BME280;31265;49.680;8.608;2023-07-13T03:04:29;100520.53;;;14.96;100.00
45541;BME280;31265;49.680;8.608;2023-07-13T03:06:57;100520.66;;;15.08;100.00
45541;BME280;31265;49.680;8.608;2023-07-13T03:09:28;100518.47;;;14.97;100.00
45541;BME280;31265;49.680;8.608;2023-07-13T03:11:56;100524.38;;;14.91;100.00
45541;BME280;31265;49.680;8.608;2023-07-13T03:14:27;100517.75;;;14.87;100.00
45541;BME280;31265;49.680;8.608;2023-07-13T03:16:54;100521.41;;;14.79;100.00
45541;BME280;31265;49.680;8.608;2023-07-13T03:19:24;100528.75;;;14.75;100.00
45541;BME280;31265;49.680;8.608;2023-07-13T03:21:52;100531.09;;;14.69;100.00
45541;BME280;31265;49.680;8.608;2023-07-13T03:24:19;100529.94;;;14.72;100.00
45541;BME280;31265;49.680;8.608;2023-07-13T03:26:46;100538.75;;;14.68;100.00
45541;BME280;31265;49.680;8.608;2023-07-13T03:29:14;100535.81;;;14.76;100.00
45541;BME280;31265;49.680;8.608;2023-07-13T03:31:42;100536.84;;;14.71;100.00
45541;BME280;31265;49.680;8.608;2023-07-13T03:34:10;100533.59;;;14.65;100.00
45541;BME280;31265;49.680;8.608;2023-07-13T03:36:38;100543.59;;;14.68;100.00
45541;BME280;31265;49.680;8.608;2023-07-13T03:39:09;100533.59;;;14.55;100.00
45541;BME280;31265;49.680;8.608;2023-07-13T03:41:48;100540.94;;;14.60;100.00
45541;BME280;31265;49.680;8.608;2023-07-13T03:44:17;100543.69;;;14.50;100.00
45541;BME280;31265;49.680;8.608;2023-07-13T03:46:48;100542.66;;;14.46;100.00
45541;BME280;31265;49.680;8.608;2023-07-13T03:49:15;100547.34;;;14.43;100.00
45541;BME280;31265;49.680;8.608;2023-07-13T03:51:42;100535.75;;;14.37;100.00
45541;BME280;31265;49.680;8.608;2023-07-13T03:54:10;100540.41;;;14.25;100.00
45541;BME280;31265;49.680;8.608;2023-07-13T03:56:37;100541.88;;;14.26;100.00
45541;BME280;31265;49.680;8.608;2023-07-13T03:59:06;100547.47;;;14.26;100.00
45541;BME280;31265;49.680;8.608;2023-07-13T04:01:33;100556.03;;;14.37;100.00
45541;BME280;31265;49.680;8.608;2023-07-13T04:04:00;100554.84;;;14.40;100.00
45541;BME280;31265;49.680;8.608;2023-07-13T04:06:31;100554.28;;;14.42;100.00
45541;BME280;31265;49.680;8.608;2023-07-13T04:09:00;100562.34;;;14.38;100.00
45541;BME280;31265;49.680;8.608;2023-07-13T04:11:29;100553.66;;;14.34;100.00
45541;BME280;31265;49.680;8.608;2023-07-13T04:13:59;100557.06;;;14.42;100.00
45541;BME280;31265;49.680;8.608;2023-07-13T04:16:27;100559.53;;;14.38;100.00
45541;BME280;31265;49.680;8.608;2023-07-13T04:18:55;100556.91;;;14.40;100.00
45541;BME280;31265;49.680;8.608;2023-07-13T04:21:26;100563.78;;;14.39;100.00
45541;BME280;31265;49.680;8.608;2023-07-13T04:23:53;100562.81;;;14.44;100.00
45541;BME280;31265;49.680;8.608;2023-07-13T04:26:20;100561.03;;;14.49;100.00
45541;BME280;31265;49.680;8.608;2023-07-13T04:28:50;100561.91;;;14.51;100.00
45541;BME280;31265;49.680;8.608;2023-07-13T04:31:17;100570.19;;;14.59;100.00
45541;BME280;31265;49.680;8.608;2023-07-13T04:33:44;100567.13;;;14.65;100.00
45541;BME280;31265;49.680;8.608;2023-07-13T04:36:14;100571.09;;;14.71;100.00
45541;BME280;31265;49.680;8.608;2023-07-13T04:38:41;100575.78;;;14.78;100.00
45541;BME280;31265;49.680;8.608;2023-07-13T04:41:08;100585.22;;;14.83;100.00
45541;BME280;31265;49.680;8.608;2023-07-13T04:43:36;100585.69;;;14.89;100.00
45541;BME280;31265;49.680;8.608;2023-07-13T04:46:05;100584.66;;;14.94;100.00
45541;BME280;31265;49.680;8.608;2023-07-13T04:48:32;100590.97;;;15.04;100.00
45541;BME280;31265;49.680;8.608;2023-07-13T04:51:00;100593.63;;;15.12;100.00
45541;BME280;31265;49.680;8.608;2023-07-13T04:53:30;100588.75;;;15.22;100.00
45541;BME280;31265;49.680;8.608;2023-07-13T04:55:58;100597.28;;;15.34;100.00
45541;BME280;31265;49.680;8.608;2023-07-13T04:58:28;100589.19;;;15.48;100.00
45541;BME280;31265;49.680;8.608;2023-07-13T05:01:01;100589.75;;;15.56;100.00
45541;BME280;31265;49.680;8.608;2023-07-13T05:03:42;100583.41;;;15.65;100.00
45541;BME280;31265;49.680;8.608;2023-07-13T05:06:09;100585.03;;;15.78;100.00
45541;BME280;31265;49.680;8.608;2023-07-13T05:08:37;100583.78;;;15.91;100.00
45541;BME280;31265;49.680;8.608;2023-07-13T05:11:07;100591.41;;;16.10;100.00
45541;BME280;31265;49.680;8.608;2023-07-13T05:13:34;100586.88;;;16.26;100.00
45541;BME280;31265;49.680;8.608;2023-07-13T05:16:03;100584.75;;;16.37;100.00
45541;BME280;31265;49.680;8.608;2023-07-13T05:18:31;100594.75;;;16.49;100.00
45541;BME280;31265;49.680;8.608;2023-07-13T05:21:00;100593.72;;;16.45;100.00
45541;BME280;31265;49.680;8.608;2023-07-13T05:23:28;100593.97;;;16.49;100.00
45541;BME280;31265;49.680;8.608;2023-07-13T05:25:55;100597.19;;;16.55;100.00
45541;BME280;31265;49.680;8.608;2023-07-13T05:28:23;100603.63;;;16.67;100.00
45541;BME280;31265;49.680;8.608;2023-07-13T05:30:50;100607.50;;;16.84;100.00
45541;BME280;31265;49.680;8.608;2023-07-13T05:33:18;100605.38;;;16.94;100.00
45541;BME280;31265;49.680;8.608;2023-07-13T05:35:45;100610.97;;;17.15;100.00
45541;BME280;31265;49.680;8.608;2023-07-13T05:38:14;100613.47;;;17.33;100.00
45541;BME280;31265;49.680;8.608;2023-07-13T05:40:42;100611.84;;;17.51;100.00
45541;BME280;31265;49.680;8.608;2023-07-13T05:43:09;100613.34;;;17.64;100.00
45541;BME280;31265;49.680;8.608;2023-07-13T05:45:36;100617.25;;;17.71;100.00
45541;BME280;31265;49.680;8.608;2023-07-13T05:48:03;100620.34;;;17.87;100.00
45541;BME280;31265;49.680;8.608;2023-07-13T05:50:30;100627.09;;;17.93;100.00
45541;BME280;31265;49.680;8.608;2023-07-13T05:52:58;100618.91;;;18.09;100.00
45541;BME280;31265;49.680;8.608;2023-07-13T05:55:25;100620.00;;;18.04;100.00
45541;BME280;31265;49.680;8.608;2023-07-13T05:57:53;100623.69;;;18.07;100.00
45541;BME280;31265;49.680;8.608;2023-07-13T06:00:20;100626.97;;;18.15;100.00
45541;BME280;31265;49.680;8.608;2023-07-13T06:02:47;100629.41;;;18.09;100.00
45541;BME280;31265;49.680;8.608;2023-07-13T06:05:14;100627.09;;;18.17;100.00
45541;BME280;31265;49.680;8.608;2023-07-13T06:07:42;100626.59;;;18.32;100.00
45541;BME280;31265;49.680;8.608;2023-07-13T06:10:09;100631.00;;;18.47;100.00
45541;BME280;31265;49.680;8.608;2023-07-13T06:12:37;100636.88;;;18.63;100.00
45541;BME280;31265;49.680;8.608;2023-07-13T06:15:05;100640.38;;;18.75;100.00
45541;BME280;31265;49.680;8.608;2023-07-13T06:17:33;100635.03;;;18.79;100.00
45541;BME280;31265;49.680;8.608;2023-07-13T06:20:00;100636.84;;;18.86;100.00
45541;BME280;31265;49.680;8.608;2023-07-13T06:22:27;100647.66;;;19.04;100.00
45541;BME280;31265;49.680;8.608;2023-07-13T06:24:55;100646.41;;;19.19;100.00
45541;BME280;31265;49.680;8.608;2023-07-13T06:27:22;100653.69;;;18.86;100.00
45541;BME280;31265;49.680;8.608;2023-07-13T06:29:50;100654.44;;;18.75;100.00
45541;BME280;31265;49.680;8.608;2023-07-13T06:32:17;100650.06;;;19.21;100.00
45541;BME280;31265;49.680;8.608;2023-07-13T06:34:46;100657.00;;;19.69;100.00
45541;BME280;31265;49.680;8.608;2023-07-13T06:37:13;100653.38;;;19.81;100.00
45541;BME280;31265;49.680;8.608;2023-07-13T06:39:40;100658.22;;;19.92;100.00
45541;BME280;31265;49.680;8.608;2023-07-13T06:42:07;100671.84;;;20.37;100.00
45541;BME280;31265;49.680;8.608;2023-07-13T06:44:34;100670.94;;;20.88;100.00
45541;BME280;31265;49.680;8.608;2023-07-13T06:47:02;100677.47;;;21.20;100.00
45541;BME280;31265;49.680;8.608;2023-07-13T06:49:29;100677.31;;;21.02;100.00
45541;BME280;31265;49.680;8.608;2023-07-13T06:51:57;100677.03;;;21.25;100.00
45541;BME280;31265;49.680;8.608;2023-07-13T06:54:24;100680.34;;;20.92;100.00
45541;BME280;31265;49.680;8.608;2023-07-13T06:56:51;100677.56;;;21.22;100.00
45541;BME280;31265;49.680;8.608;2023-07-13T06:59:18;100683.16;;;21.50;100.00
45541;BME280;31265;49.680;8.608;2023-07-13T07:01:45;100686.63;;;22.09;97.13
45541;BME280;31265;49.680;8.608;2023-07-13T07:04:13;100685.84;;;22.23;95.69
45541;BME280;31265;49.680;8.608;2023-07-13T07:06:40;100695.78;;;22.40;92.20
45541;BME280;31265;49.680;8.608;2023-07-13T07:09:07;100691.84;;;22.63;91.37
45541;BME280;31265;49.680;8.608;2023-07-13T07:11:35;100697.56;;;22.81;91.40
45541;BME280;31265;49.680;8.608;2023-07-13T07:14:02;100695.22;;;22.75;91.31
45541;BME280;31265;49.680;8.608;2023-07-13T07:16:29;100696.72;;;22.28;92.44
45541;BME280;31265;49.680;8.608;2023-07-13T07:18:56;100696.97;;;22.35;93.32
45541;BME280;31265;49.680;8.608;2023-07-13T07:21:24;100698.06;;;22.59;91.12
45541;BME280;31265;49.680;8.608;2023-07-13T07:23:52;100706.00;;;22.63;95.76
45541;BME280;31265;49.680;8.608;2023-07-13T07:26:19;100701.09;;;23.31;86.22
45541;BME280;31265;49.680;8.608;2023-07-13T07:28:49;100700.13;;;23.78;83.70
45541;BME280;31265;49.680;8.608;2023-07-13T07:31:36;100702.22;;;23.24;86.86
45541;BME280;31265;49.680;8.608;2023-07-13T07:34:06;100688.94;;;23.46;88.80
45541;BME280;31265;49.680;8.608;2023-07-13T07:36:34;100696.63;;;24.55;81.34
45541;BME280;31265;49.680;8.608;2023-07-13T07:39:03;100686.09;;;25.00;76.54
45541;BME280;31265;49.680;8.608;2023-07-13T07:41:31;100691.91;;;25.24;75.66
45541;BME280;31265;49.680;8.608;2023-07-13T07:44:01;100690.03;;;25.10;74.28
45541;BME280;31265;49.680;8.608;2023-07-13T07:46:28;100688.16;;;26.09;71.57
45541;BME280;31265;49.680;8.608;2023-07-13T07:48:55;100696.22;;;26.17;70.20
45541;BME280;31265;49.680;8.608;2023-07-13T07:51:23;100691.09;;;26.37;63.64
45541;BME280;31265;49.680;8.608;2023-07-13T07:53:50;100696.50;;;26.27;61.89
45541;BME280;31265;49.680;8.608;2023-07-13T07:56:17;100698.47;;;25.97;60.60
45541;BME280;31265;49.680;8.608;2023-07-13T07:58:47;100698.53;;;25.77;61.94
45541;BME280;31265;49.680;8.608;2023-07-13T08:01:17;100692.16;;;26.24;60.67
45541;BME280;31265;49.680;8.608;2023-07-13T08:03:47;100698.81;;;26.59;60.91
45541;BME280;31265;49.680;8.608;2023-07-13T08:06:17;100698.78;;;26.85;60.73
45541;BME280;31265;49.680;8.608;2023-07-13T08:09:06;100705.16;;;27.12;60.11
45541;BME280;31265;49.680;8.608;2023-07-13T08:11:34;100701.41;;;27.03;57.28
45541;BME280;31265;49.680;8.608;2023-07-13T08:14:04;100702.59;;;26.68;59.16
45541;BME280;31265;49.680;8.608;2023-07-13T08:16:32;100700.91;;;26.56;58.04
45541;BME280;31265;49.680;8.608;2023-07-13T08:19:00;100707.00;;;27.27;56.43
45541;BME280;31265;49.680;8.608;2023-07-13T08:21:27;100697.69;;;26.44;61.14
45541;BME280;31265;49.680;8.608;2023-07-13T08:23:55;100699.09;;;26.95;59.47
45541;BME280;31265;49.680;8.608;2023-07-13T08:26:23;100695.69;;;26.75;57.40
45541;BME280;31265;49.680;8.608;2023-07-13T08:28:50;100692.41;;;26.08;60.62
45541;BME280;31265;49.680;8.608;2023-07-13T08:31:18;100684.75;;;25.01;64.75
45541;BME280;31265;49.680;8.608;2023-07-13T08:33:45;100696.78;;;25.65;71.26
45541;BME280;31265;49.680;8.608;2023-07-13T08:36:12;100695.34;;;25.64;63.82
45541;BME280;31265;49.680;8.608;2023-07-13T08:38:39;100690.25;;;25.85;61.29
45541;BME280;31265;49.680;8.608;2023-07-13T08:41:12;100690.25;;;26.85;59.52
45541;BME280;31265;49.680;8.608;2023-07-13T08:43:42;100689.56;;;26.58;58.95
45541;BME280;31265;49.680;8.608;2023-07-13T08:46:15;100681.56;;;26.79;54.92
45541;BME280;31265;49.680;8.608;2023-07-13T08:48:46;100677.03;;;25.69;64.52
45541;BME280;31265;49.680;8.608;2023-07-13T08:51:28;100688.91;;;26.10;63.45
45541;BME280;31265;49.680;8.608;2023-07-13T08:54:03;100687.47;;;26.35;58.85
45541;BME280;31265;49.680;8.608;2023-07-13T08:56:32;100680.50;;;26.40;58.22
45541;BME280;31265;49.680;8.608;2023-07-13T08:59:04;100680.13;;;26.02;57.22
45541;BME280;31265;49.680;8.608;2023-07-13T09:01:44;100676.31;;;25.93;60.34
45541;BME280;31265;49.680;8.608;2023-07-13T09:04:18;100676.72;;;26.84;61.15
45541;BME280;31265;49.680;8.608;2023-07-13T09:06:55;100691.22;;;27.52;55.47
45541;BME280;31265;49.680;8.608;2023-07-13T09:09:34;100693.09;;;28.04;49.43
45541;BME280;31265;49.680;8.608;2023-07-13T09:12:11;100678.47;;;28.56;49.33
45541;BME280;31265;49.680;8.608;2023-07-13T09:14:43;100677.31;;;28.71;48.92
45541;BME280;31265;49.680;8.608;2023-07-13T09:17:17;100682.78;;;28.23;48.36
45541;BME280;31265;49.680;8.608;2023-07-13T09:19:49;100675.22;;;27.39;50.09
45541;BME280;31265;49.680;8.608;2023-07-13T09:22:21;100669.22;;;26.70;54.26
45541;BME280;31265;49.680;8.608;2023-07-13T09:24:57;100673.28;;;26.89;51.61
45541;BME280;31265;49.680;8.608;2023-07-13T09:27:30;100663.41;;;26.64;51.50
45541;BME280;31265;49.680;8.608;2023-07-13T09:30:12;100668.69;;;27.04;50.62
45541;BME280;31265;49.680;8.608;2023-07-13T09:32:48;100672.00;;;27.53;48.96
45541;BME280;31265;49.680;8.608;2023-07-13T09:35:20;100665.66;;;26.70;51.63
45541;BME280;31265;49.680;8.608;2023-07-13T09:37:49;100667.00;;;26.14;52.19
45541;BME280;31265;49.680;8.608;2023-07-13T09:40:23;100670.25;;;26.29;51.74
45541;BME280;31265;49.680;8.608;2023-07-13T09:42:53;100662.66;;;26.37;52.77
45541;BME280;31265;49.680;8.608;2023-07-13T09:45:27;100665.25;;;26.53;51.70
45541;BME280;31265;49.680;8.608;2023-07-13T09:47:59;100660.13;;;26.50;53.60
45541;BME280;31265;49.680;8.608;2023-07-13T09:50:30;100656.97;;;26.11;54.54
45541;BME280;31265;49.680;8.608;2023-07-13T09:52:57;100666.81;;;25.84;52.98
45541;BME280;31265;49.680;8.608;2023-07-13T09:55:29;100659.84;;;25.65;51.18
45541;BME280;31265;49.680;8.608;2023-07-13T09:57:59;100660.66;;;25.46;53.53
45541;BME280;31265;49.680;8.608;2023-07-13T10:00:30;100665.63;;;25.23;51.19
45541;BME280;31265;49.680;8.608;2023-07-13T10:03:09;100661.13;;;25.16;53.21
45541;BME280;31265;49.680;8.608;2023-07-13T10:05:43;100664.59;;;25.35;54.34
45541;BME280;31265;49.680;8.608;2023-07-13T10:08:19;100658.59;;;25.48;53.31
45541;BME280;31265;49.680;8.608;2023-07-13T10:10:52;100663.69;;;25.76;52.86
45541;BME280;31265;49.680;8.608;2023-07-13T10:13:29;100668.47;;;26.68;51.33
45541;BME280;31265;49.680;8.608;2023-07-13T10:15:59;100670.84;;;26.77;49.72
45541;BME280;31265;49.680;8.608;2023-07-13T10:18:28;100667.78;;;26.97;48.69
45541;BME280;31265;49.680;8.608;2023-07-13T10:21:08;100668.47;;;26.68;49.41
45541;BME280;31265;49.680;8.608;2023-07-13T10:23:59;100664.09;;;26.12;53.69
45541;BME280;31265;49.680;8.608;2023-07-13T10:26:32;100669.31;;;27.00;47.18
45541;BME280;31265;49.680;8.608;2023-07-13T10:29:04;100664.63;;;26.85;46.13
45541;BME280;31265;49.680;8.608;2023-07-13T10:31:37;100664.78;;;26.37;46.54
45541;BME280;31265;49.680;8.608;2023-07-13T10:34:07;100664.44;;;26.25;49.06
45541;BME280;31265;49.680;8.608;2023-07-13T10:36:40;100667.44;;;26.31;48.08
45541;BME280;31265;49.680;8.608;2023-07-13T10:39:15;100664.69;;;25.85;47.90
45541;BME280;31265;49.680;8.608;2023-07-13T10:41:44;100667.44;;;25.59;49.71
45541;BME280;31265;49.680;8.608;2023-07-13T10:44:21;100667.66;;;25.43;48.86
45541;BME280;31265;49.680;8.608;2023-07-13T10:46:55;100661.38;;;25.46;49.30
45541;BME280;31265;49.680;8.608;2023-07-13T10:49:24;100658.22;;;25.36;49.50
45541;BME280;31265;49.680;8.608;2023-07-13T10:51:54;100662.00;;;25.43;49.62
45541;BME280;31265;49.680;8.608;2023-07-13T10:54:26;100669.69;;;25.62;48.90
45541;BME280;31265;49.680;8.608;2023-07-13T10:57:08;100661.78;;;26.85;46.55
45541;BME280;31265;49.680;8.608;2023-07-13T10:59:40;100658.31;;;28.48;45.41
45541;BME280;31265;49.680;8.608;2023-07-13T11:02:20;100654.22;;;29.93;40.09
45541;BME280;31265;49.680;8.608;2023-07-13T11:04:49;100662.66;;;30.39;39.17
45541;BME280;31265;49.680;8.608;2023-07-13T11:07:21;100658.56;;;30.61;36.72
45541;BME280;31265;49.680;8.608;2023-07-13T11:09:50;100657.72;;;29.87;37.41
45541;BME280;31265;49.680;8.608;2023-07-13T11:15:11;100666.19;;;31.13;36.46
45541;BME280;31265;49.680;8.608;2023-07-13T11:17:50;100654.16;;;31.35;36.70
45541;BME280;31265;49.680;8.608;2023-07-13T11:20:34;100658.56;;;31.44;36.97
45541;BME280;31265;49.680;8.608;2023-07-13T11:23:18;100656.03;;;30.96;37.04
45541;BME280;31265;49.680;8.608;2023-07-13T11:25:47;100654.31;;;30.64;36.15
45541;BME280;31265;49.680;8.608;2023-07-13T11:28:17;100660.28;;;30.91;38.44
45541;BME280;31265;49.680;8.608;2023-07-13T11:30:49;100636.09;;;31.10;36.94
45541;BME280;31265;49.680;8.608;2023-07-13T11:33:22;100641.81;;;31.10;35.32
45541;BME280;31265;49.680;8.608;2023-07-13T11:35:59;100643.38;;;31.23;35.21
45541;BME280;31265;49.680;8.608;2023-07-13T11:38:33;100641.09;;;31.10;34.64
45541;BME280;31265;49.680;8.608;2023-07-13T11:41:04;100632.13;;;31.56;36.78
45541;BME280;31265;49.680;8.608;2023-07-13T11:43:31;100629.97;;;29.45;36.70
45541;BME280;31265;49.680;8.608;2023-07-13T11:46:16;100626.97;;;29.37;37.41
45541;BME280;31265;49.680;8.608;2023-07-13T11:48:48;100636.88;;;30.37;36.36
45541;BME280;31265;49.680;8.608;2023-07-13T11:51:21;100630.44;;;29.29;37.50
45541;BME280;31265;49.680;8.608;2023-07-13T11:53:51;100635.94;;;28.72;38.12
45541;BME280;31265;49.680;8.608;2023-07-13T11:56:22;100636.72;;;28.39;39.50
45541;BME280;31265;49.680;8.608;2023-07-13T11:58:54;100642.09;;;28.99;38.19
45541;BME280;31265;49.680;8.608;2023-07-13T12:01:26;100636.34;;;28.18;41.00
45541;BME280;31265;49.680;8.608;2023-07-13T12:03:56;100639.78;;;28.47;39.14
45541;BME280;31265;49.680;8.608;2023-07-13T12:06:27;100647.88;;;28.24;39.11
45541;BME280;31265;49.680;8.608;2023-07-13T12:08:59;100636.03;;;29.68;36.95
45541;BME280;31265;49.680;8.608;2023-07-13T12:11:27;100631.19;;;31.27;37.04
45541;BME280;31265;49.680;8.608;2023-07-13T12:13:55;100641.47;;;31.65;32.50
45541;BME280;31265;49.680;8.608;2023-07-13T12:16:28;100637.53;;;29.73;35.61
45541;BME280;31265;49.680;8.608;2023-07-13T12:18:57;100642.91;;;28.63;38.07
45541;BME280;31265;49.680;8.608;2023-07-13T12:21:30;100654.09;;;28.51;37.48
45541;BME280;31265;49.680;8.608;2023-07-13T12:23:58;100659.31;;;27.90;40.30
45541;BME280;31265;49.680;8.608;2023-07-13T12:26:25;100659.13;;;27.52;40.73
45541;BME280;31265;49.680;8.608;2023-07-13T12:28:54;100649.75;;;26.87;42.41
45541;BME280;31265;49.680;8.608;2023-07-13T12:31:34;100659.53;;;26.79;42.74
45541;BME280;31265;49.680;8.608;2023-07-13T12:34:06;100655.44;;;26.87;43.49
45541;BME280;31265;49.680;8.608;2023-07-13T12:36:35;100663.38;;;27.18;40.74
45541;BME280;31265;49.680;8.608;2023-07-13T12:39:14;100659.72;;;27.46;41.93
45541;BME280;31265;49.680;8.608;2023-07-13T12:41:42;100654.19;;;27.52;40.70
45541;BME280;31265;49.680;8.608;2023-07-13T12:44:15;100657.16;;;28.25;40.61
45541;BME280;31265;49.680;8.608;2023-07-13T12:46:56;100654.88;;;28.17;39.95
45541;BME280;31265;49.680;8.608;2023-07-13T12:49:28;100650.50;;;28.12;40.51
45541;BME280;31265;49.680;8.608;2023-07-13T12:51:57;100656.94;;;28.49;39.41
45541;BME280;31265;49.680;8.608;2023-07-13T12:54:26;100657.97;;;28.29;39.59
45541;BME280;31265;49.680;8.608;2023-07-13T12:56:54;100657.84;;;27.89;40.63
45541;BME280;31265;49.680;8.608;2023-07-13T12:59:25;100672.34;;;28.36;39.84
45541;BME280;31265;49.680;8.608;2023-07-13T13:01:56;100663.94;;;28.07;37.85